createdAt,value
2019-03-16T00:01:12.839Z,2.23
2019-03-16T00:03:38.162Z,2.00
2019-03-16T00:06:04.008Z,3.07
2019-03-16T00:08:29.834Z,2.10
2019-03-16T00:10:55.648Z,3.00
2019-03-16T00:13:21.477Z,2.47
2019-03-16T00:15:47.310Z,2.40
2019-03-16T00:18:13.137Z,2.70
2019-03-16T00:20:38.987Z,2.40
2019-03-16T00:23:04.810Z,1.67
2019-03-16T00:25:30.645Z,2.50
2019-03-16T00:27:56.468Z,2.60
2019-03-16T00:30:22.385Z,2.50
2019-03-16T00:32:48.130Z,2.60
2019-03-16T00:35:13.953Z,3.27
2019-03-16T00:37:39.807Z,2.83
2019-03-16T00:40:08.714Z,2.70
2019-03-16T00:42:34.553Z,1.90
2019-03-16T00:45:00.554Z,2.80
2019-03-16T00:47:26.407Z,2.50
2019-03-16T00:49:52.240Z,2.30
2019-03-16T00:52:18.076Z,1.30
2019-03-16T00:54:43.915Z,2.20
2019-03-16T00:57:09.724Z,1.83
2019-03-16T00:59:35.568Z,1.67
2019-03-16T01:02:01.475Z,2.00
2019-03-16T01:04:27.289Z,2.13
2019-03-16T01:06:53.121Z,1.83
2019-03-16T01:09:18.953Z,2.37
2019-03-16T01:11:44.774Z,1.73
2019-03-16T01:14:10.598Z,2.13
2019-03-16T01:16:36.438Z,1.87
2019-03-16T01:19:02.265Z,2.03
2019-03-16T01:21:28.093Z,2.10
2019-03-16T01:23:53.915Z,2.43
2019-03-16T01:26:19.757Z,2.67
2019-03-16T01:28:45.565Z,2.80
2019-03-16T01:31:11.420Z,2.50
2019-03-16T01:33:37.254Z,2.80
2019-03-16T01:36:03.112Z,2.60
2019-03-16T01:38:28.923Z,2.50
2019-03-16T01:40:54.759Z,2.60
2019-03-16T01:43:20.582Z,3.50
2019-03-16T01:45:46.409Z,3.20
2019-03-16T01:48:12.228Z,3.93
2019-03-16T01:50:38.031Z,2.50
2019-03-16T01:53:03.840Z,2.47
2019-03-16T01:55:29.653Z,2.60
2019-03-16T01:57:55.506Z,3.10
2019-03-16T02:00:21.416Z,3.00
2019-03-16T02:02:54.803Z,3.20
2019-03-16T02:05:14.980Z,2.70
2019-03-16T02:07:40.819Z,2.63
2019-03-16T02:10:07.746Z,3.03
2019-03-16T02:12:33.553Z,2.60
2019-03-16T02:14:59.376Z,2.37
2019-03-16T02:17:25.183Z,2.23
2019-03-16T02:19:51.008Z,3.03
2019-03-16T02:22:17.526Z,2.87
2019-03-16T02:24:43.373Z,2.73
2019-03-16T02:27:09.178Z,2.50
2019-03-16T02:29:35.016Z,2.73
2019-03-16T02:32:00.855Z,1.97
2019-03-16T02:34:26.695Z,2.87
2019-03-16T02:36:52.524Z,2.60
2019-03-16T02:39:18.335Z,2.07
2019-03-16T02:41:44.147Z,2.80
2019-03-16T02:44:11.545Z,2.80
2019-03-16T02:46:37.504Z,2.57
2019-03-16T02:49:03.334Z,1.97
2019-03-16T02:51:29.156Z,3.20
2019-03-16T02:53:54.990Z,2.50
2019-03-16T02:56:20.829Z,2.07
2019-03-16T02:58:46.647Z,2.17
2019-03-16T03:01:12.476Z,3.83
2019-03-16T03:03:38.300Z,3.60
2019-03-16T03:06:04.103Z,2.50
2019-03-16T03:08:29.933Z,2.30
2019-03-16T03:10:55.742Z,2.80
2019-03-16T03:13:21.590Z,2.47
2019-03-16T03:15:47.392Z,2.50
2019-03-16T03:18:13.189Z,2.03
2019-03-16T03:20:39.038Z,2.50
2019-03-16T03:23:04.878Z,2.10
2019-03-16T03:25:30.683Z,1.77
2019-03-16T03:27:56.526Z,2.60
2019-03-16T03:30:22.345Z,2.40
2019-03-16T03:32:48.327Z,2.00
2019-03-16T03:35:14.132Z,2.60
2019-03-16T03:37:39.924Z,2.07
2019-03-16T03:40:07.845Z,3.90
2019-03-16T03:42:33.769Z,1.83
2019-03-16T03:44:59.624Z,3.73
2019-03-16T03:47:25.447Z,2.07
2019-03-16T03:49:51.279Z,2.00
2019-03-16T03:52:17.120Z,2.53
2019-03-16T03:54:42.931Z,2.23
2019-03-16T03:57:08.769Z,2.33
2019-03-16T03:59:34.600Z,2.27
2019-03-16T04:02:00.545Z,2.90
2019-03-16T04:04:26.362Z,3.67
2019-03-16T04:06:52.480Z,2.13
2019-03-16T04:09:18.401Z,1.93
2019-03-16T04:11:44.231Z,1.70
2019-03-16T04:14:10.045Z,1.73
2019-03-16T04:16:35.859Z,1.83
2019-03-16T04:19:01.688Z,1.90
2019-03-16T04:21:27.499Z,2.50
2019-03-16T04:23:53.317Z,2.23
2019-03-16T04:26:19.140Z,2.60
2019-03-16T04:28:44.976Z,1.83
2019-03-16T04:31:10.885Z,1.93
2019-03-16T04:33:36.734Z,2.30
2019-03-16T04:36:02.585Z,2.17
2019-03-16T04:38:28.429Z,1.80
2019-03-16T04:40:54.321Z,1.70
2019-03-16T04:43:20.129Z,2.00
2019-03-16T04:45:45.956Z,2.00
2019-03-16T04:48:11.770Z,2.00
2019-03-16T04:50:37.596Z,2.50
2019-03-16T04:53:03.423Z,2.20
2019-03-16T04:55:29.238Z,1.93
2019-03-16T04:57:55.062Z,2.57
2019-03-16T05:00:20.907Z,3.40
2019-03-16T05:02:46.816Z,2.37
2019-03-16T05:05:12.765Z,2.57
2019-03-16T05:07:38.580Z,2.50
2019-03-16T05:10:07.483Z,2.43
2019-03-16T05:12:33.327Z,2.90
2019-03-16T05:14:59.128Z,4.40
2019-03-16T05:17:24.945Z,2.13
2019-03-16T05:19:50.758Z,1.70
2019-03-16T05:22:16.586Z,2.80
2019-03-16T05:24:42.406Z,2.13
2019-03-16T05:27:08.248Z,2.20
2019-03-16T05:29:34.071Z,2.53
2019-03-16T05:31:59.918Z,2.53
2019-03-16T05:34:25.734Z,2.27
2019-03-16T05:36:51.558Z,2.00
2019-03-16T05:39:17.407Z,2.30
2019-03-16T05:41:43.233Z,2.40
2019-03-16T05:44:09.053Z,2.03
2019-03-16T05:46:34.863Z,2.73
2019-03-16T05:49:00.701Z,2.77
2019-03-16T05:51:26.522Z,2.40
2019-03-16T05:53:52.340Z,2.90
2019-03-16T05:56:18.176Z,2.80
2019-03-16T05:58:44.010Z,3.10
2019-03-16T06:01:09.844Z,3.07
2019-03-16T06:03:35.651Z,2.77
2019-03-16T06:06:01.476Z,3.27
2019-03-16T06:08:27.309Z,3.17
2019-03-16T06:10:53.144Z,3.07
2019-03-16T06:13:18.957Z,3.27
2019-03-16T06:15:44.798Z,3.20
2019-03-16T06:18:13.050Z,3.57
2019-03-16T06:20:38.435Z,6.17
2019-03-16T06:23:04.267Z,4.30
2019-03-16T06:25:30.099Z,2.23
2019-03-16T06:27:56.397Z,2.27
2019-03-16T06:30:22.323Z,2.60
2019-03-16T06:32:48.498Z,1.80
2019-03-16T06:35:24.480Z,1.83
2019-03-16T06:37:42.098Z,1.80
2019-03-16T06:40:09.335Z,1.93
2019-03-16T06:42:35.185Z,1.97
2019-03-16T06:45:01.016Z,2.70
2019-03-16T06:47:26.844Z,1.67
2019-03-16T06:49:52.680Z,1.90
2019-03-16T06:52:18.488Z,2.47
2019-03-16T06:54:44.331Z,3.10
2019-03-16T06:57:10.145Z,2.43
2019-03-16T06:59:35.962Z,2.20
2019-03-16T07:02:01.795Z,2.20
2019-03-16T07:04:27.615Z,2.00
2019-03-16T07:06:53.420Z,2.20
2019-03-16T07:09:19.252Z,2.87
2019-03-16T07:11:45.087Z,1.93
2019-03-16T07:14:10.916Z,2.47
2019-03-16T07:16:36.755Z,2.20
2019-03-16T07:19:02.576Z,2.57
2019-03-16T07:21:28.417Z,2.67
2019-03-16T07:23:54.240Z,2.37
2019-03-16T07:26:20.071Z,2.43
2019-03-16T07:28:45.924Z,3.13
2019-03-16T07:31:11.768Z,3.97
2019-03-16T07:33:37.611Z,2.97
2019-03-16T07:36:03.414Z,2.90
2019-03-16T07:38:29.244Z,16.37
2019-03-16T07:40:55.088Z,3.70
2019-03-16T07:43:20.917Z,3.00
2019-03-16T07:45:46.739Z,2.90
2019-03-16T07:48:12.561Z,2.83
2019-03-16T07:50:38.387Z,9.80
2019-03-16T07:53:04.221Z,6.37
2019-03-16T07:55:30.045Z,2.90
2019-03-16T07:57:55.870Z,3.17
2019-03-16T08:00:21.673Z,2.47
2019-03-16T08:02:47.520Z,2.80
2019-03-16T08:05:18.827Z,2.93
2019-03-16T08:07:41.067Z,2.57
2019-03-16T08:10:08.413Z,3.17
2019-03-16T08:12:34.245Z,3.83
2019-03-16T08:15:00.170Z,8.03
2019-03-16T08:17:26.111Z,6.73
2019-03-16T08:19:51.930Z,5.13
2019-03-16T08:22:17.756Z,3.53
2019-03-16T08:24:43.588Z,2.67
2019-03-16T08:27:09.433Z,2.63
2019-03-16T08:29:35.265Z,4.50
2019-03-16T08:32:01.097Z,9.37
2019-03-16T08:34:26.973Z,9.47
2019-03-16T08:36:52.849Z,4.73
2019-03-16T08:39:18.638Z,8.50
2019-03-16T08:41:44.481Z,4.23
2019-03-16T08:44:10.293Z,4.80
2019-03-16T08:46:36.131Z,4.10
2019-03-16T08:49:01.961Z,3.33
2019-03-16T08:51:27.784Z,3.40
2019-03-16T08:53:53.606Z,2.03
2019-03-16T08:56:19.439Z,1.83
2019-03-16T08:58:45.371Z,1.73
2019-03-16T09:01:11.258Z,3.23
2019-03-16T09:03:43.621Z,2.47
2019-03-16T09:06:04.848Z,2.70
2019-03-16T09:08:30.711Z,1.90
2019-03-16T09:10:56.570Z,2.00
2019-03-16T09:13:22.424Z,2.20
2019-03-16T09:15:48.326Z,2.67
2019-03-16T09:18:15.231Z,1.43
2019-03-16T09:20:41.076Z,1.80
2019-03-16T09:23:06.942Z,2.50
2019-03-16T09:25:32.779Z,2.07
2019-03-16T09:27:58.631Z,2.90
2019-03-16T09:30:24.874Z,3.70
2019-03-16T09:32:50.723Z,3.03
2019-03-16T09:35:16.637Z,2.10
2019-03-16T09:37:42.466Z,2.20
2019-03-16T09:40:09.245Z,2.07
2019-03-16T09:42:35.338Z,1.80
2019-03-16T09:45:01.178Z,1.43
2019-03-16T09:47:27.010Z,1.47
2019-03-16T09:49:52.844Z,2.27
2019-03-16T09:52:18.665Z,2.67
2019-03-16T09:54:44.589Z,2.00
2019-03-16T09:57:10.422Z,2.30
2019-03-16T09:59:36.273Z,2.20
2019-03-16T10:02:02.103Z,1.73
2019-03-16T10:04:27.953Z,1.90
2019-03-16T10:06:53.868Z,1.70
2019-03-16T10:09:19.696Z,1.80
2019-03-16T10:11:45.522Z,1.90
2019-03-16T10:14:11.358Z,2.67
2019-03-16T10:16:37.200Z,2.73
2019-03-16T10:19:03.141Z,9.37
2019-03-16T10:21:29.067Z,8.27
2019-03-16T10:23:54.904Z,10.87
2019-03-16T10:26:20.727Z,5.67
2019-03-16T10:28:46.589Z,3.03
2019-03-16T10:31:12.426Z,5.00
2019-03-16T10:33:38.281Z,3.90
2019-03-16T10:36:04.110Z,4.07
2019-03-16T10:38:29.955Z,3.37
2019-03-16T10:40:55.778Z,3.67
2019-03-16T10:43:21.617Z,2.60
2019-03-16T10:45:47.453Z,4.43
2019-03-16T10:48:13.276Z,3.43
2019-03-16T10:50:39.182Z,3.53
2019-03-16T10:53:05.225Z,3.70
2019-03-16T10:55:31.473Z,2.47
2019-03-16T10:57:58.234Z,2.90
2019-03-16T11:00:24.606Z,3.37
2019-03-16T11:02:51.979Z,3.57
2019-03-16T11:05:18.106Z,3.37
2019-03-16T11:07:44.083Z,6.70
2019-03-16T11:10:11.454Z,4.53
2019-03-16T11:12:37.670Z,4.20
2019-03-16T11:15:08.943Z,4.57
2019-03-16T11:17:35.133Z,5.13
2019-03-16T11:20:00.996Z,4.97
2019-03-16T11:22:27.042Z,4.23
2019-03-16T11:24:53.030Z,3.07
2019-03-16T11:27:19.221Z,3.60
2019-03-16T11:29:45.379Z,3.03
2019-03-16T11:32:11.710Z,2.93
2019-03-16T11:34:37.654Z,3.80
2019-03-16T11:37:03.698Z,3.23
2019-03-16T11:39:32.079Z,2.90
2019-03-16T11:41:57.654Z,3.33
2019-03-16T11:44:23.588Z,2.73
2019-03-16T11:46:49.671Z,2.73
2019-03-16T11:49:15.710Z,3.90
2019-03-16T11:51:41.755Z,3.67
2019-03-16T11:54:07.803Z,3.90
2019-03-16T11:56:34.066Z,1.63
2019-03-16T11:59:02.142Z,3.20
2019-03-16T12:01:28.448Z,3.43
2019-03-16T12:03:54.771Z,3.27
2019-03-16T12:06:20.622Z,2.30
2019-03-16T12:08:46.663Z,3.00
2019-03-16T12:11:12.792Z,1.13
2019-03-16T12:13:38.930Z,2.23
2019-03-16T12:16:04.957Z,1.63
2019-03-16T12:18:31.049Z,1.63
2019-03-16T12:20:57.301Z,2.03
2019-03-16T12:23:23.137Z,1.70
2019-03-16T12:25:48.977Z,2.57
2019-03-16T12:28:14.790Z,2.60
2019-03-16T12:30:40.635Z,2.37
2019-03-16T12:33:06.447Z,2.57
2019-03-16T12:35:32.284Z,2.90
2019-03-16T12:37:58.112Z,2.97
2019-03-16T12:40:23.937Z,1.90
2019-03-16T12:42:49.798Z,1.90
2019-03-16T12:45:20.026Z,3.33
2019-03-16T12:47:44.592Z,2.30
2019-03-16T12:50:10.534Z,2.80
2019-03-16T12:52:36.402Z,2.50
2019-03-16T12:55:03.852Z,2.30
2019-03-16T12:57:29.726Z,2.40
2019-03-16T12:59:55.591Z,4.00
2019-03-16T13:02:21.405Z,3.80
2019-03-16T13:04:47.243Z,2.83
2019-03-16T13:07:13.073Z,3.93
2019-03-16T13:09:38.893Z,2.97
2019-03-16T13:12:04.831Z,3.10
2019-03-16T13:14:30.660Z,3.00
2019-03-16T13:16:56.575Z,2.23
2019-03-16T13:19:22.728Z,3.37
2019-03-16T13:21:48.756Z,2.50
2019-03-16T13:24:14.595Z,3.53
2019-03-16T13:26:40.497Z,2.00
2019-03-16T13:29:08.976Z,3.10
2019-03-16T13:31:34.900Z,3.23
2019-03-16T13:34:00.766Z,3.80
2019-03-16T13:36:26.754Z,2.97
2019-03-16T13:38:52.613Z,3.60
2019-03-16T13:41:18.537Z,2.43
2019-03-16T13:43:44.449Z,2.43
2019-03-16T13:46:10.555Z,2.30
2019-03-16T13:48:36.467Z,2.10
2019-03-16T13:51:02.452Z,2.80
2019-03-16T13:53:28.324Z,2.23
2019-03-16T13:55:54.370Z,2.33
2019-03-16T13:58:20.314Z,2.30
2019-03-16T14:00:46.182Z,2.40
2019-03-16T14:03:12.384Z,4.20
2019-03-16T14:05:38.273Z,2.80
2019-03-16T14:08:04.228Z,1.80
2019-03-16T14:10:31.301Z,1.90
2019-03-16T14:12:57.193Z,1.97
2019-03-16T14:15:23.087Z,2.03
2019-03-16T14:17:48.965Z,2.13
2019-03-16T14:20:15.332Z,1.93
2019-03-16T14:22:41.200Z,2.30
2019-03-16T14:25:08.019Z,2.23
2019-03-16T14:27:34.079Z,1.30
2019-03-16T14:29:59.980Z,2.00
2019-03-16T14:32:26.032Z,1.87
2019-03-16T14:34:51.953Z,2.10
2019-03-16T14:37:18.222Z,1.77
2019-03-16T14:39:44.116Z,1.53
2019-03-16T14:42:10.322Z,1.70
2019-03-16T14:44:36.282Z,1.43
2019-03-16T14:47:02.254Z,1.73
2019-03-16T14:49:28.115Z,1.20
2019-03-16T14:51:53.998Z,1.30
2019-03-16T14:54:19.860Z,1.60
2019-03-16T14:56:45.927Z,1.00
2019-03-16T14:59:11.770Z,1.03
2019-03-16T15:01:37.636Z,2.13
2019-03-16T15:04:03.507Z,1.97
2019-03-16T15:06:29.417Z,3.67
2019-03-16T15:08:55.248Z,1.30
2019-03-16T15:11:21.138Z,0.90
2019-03-16T15:13:46.972Z,1.60
2019-03-16T15:16:12.839Z,1.30
2019-03-16T15:18:38.717Z,1.63
2019-03-16T15:21:04.567Z,4.67
2019-03-16T15:23:30.529Z,9.07
2019-03-16T15:25:56.455Z,4.07
2019-03-16T15:28:22.323Z,12.83
2019-03-16T15:30:50.872Z,10.53
2019-03-16T15:33:16.082Z,7.10
2019-03-16T15:35:41.967Z,9.07
2019-03-16T15:38:07.817Z,4.17
2019-03-16T15:40:38.208Z,3.20
2019-03-16T15:43:02.063Z,6.17
2019-03-16T15:45:29.806Z,2.30
2019-03-16T15:47:55.636Z,1.20
2019-03-16T15:50:21.527Z,1.60
2019-03-16T15:52:47.335Z,1.73
2019-03-16T15:55:13.343Z,1.30
2019-03-16T15:57:42.315Z,1.20
2019-03-16T16:00:12.685Z,1.27
2019-03-16T16:02:38.605Z,1.20
2019-03-16T16:05:06.442Z,1.60
2019-03-16T16:07:35.235Z,1.10
2019-03-16T16:10:00.404Z,1.40
2019-03-16T16:12:26.451Z,1.30
2019-03-16T16:14:52.355Z,1.70
2019-03-16T16:17:18.305Z,1.00
2019-03-16T16:19:46.683Z,1.57
2019-03-16T16:22:12.551Z,1.93
2019-03-16T16:24:38.374Z,1.50
2019-03-16T16:27:04.256Z,1.60
2019-03-16T16:29:30.089Z,1.37
2019-03-16T16:31:55.931Z,2.00
2019-03-16T16:34:21.831Z,1.43
2019-03-16T16:36:47.699Z,1.30
2019-03-16T16:39:14.513Z,2.20
2019-03-16T16:41:40.428Z,5.03
2019-03-16T16:44:06.299Z,4.80
2019-03-16T16:46:32.159Z,4.17
2019-03-16T16:48:59.139Z,2.87
2019-03-16T16:51:25.052Z,2.40
2019-03-16T16:53:50.876Z,2.07
2019-03-16T16:56:16.769Z,2.20
2019-03-16T16:58:42.616Z,2.27
2019-03-16T17:01:08.469Z,1.70
2019-03-16T17:03:34.509Z,1.30
2019-03-16T17:06:00.380Z,1.70
2019-03-16T17:08:26.310Z,1.70
2019-03-16T17:10:52.192Z,1.80
2019-03-16T17:13:18.115Z,1.30
2019-03-16T17:15:44.021Z,1.40
2019-03-16T17:18:09.852Z,1.37
2019-03-16T17:20:35.710Z,1.57
2019-03-16T17:23:01.559Z,1.30
2019-03-16T17:25:27.386Z,1.23
2019-03-16T17:27:54.572Z,1.80
2019-03-16T17:30:25.486Z,1.70
2019-03-16T17:32:51.362Z,1.70
2019-03-16T17:35:17.198Z,1.53
2019-03-16T17:37:43.033Z,1.30
2019-03-16T17:40:10.753Z,1.30
2019-03-16T17:42:36.614Z,1.47
2019-03-16T17:45:05.039Z,1.80
2019-03-16T17:47:30.881Z,1.63
2019-03-16T17:49:56.719Z,2.33
2019-03-16T17:52:22.556Z,1.73
2019-03-16T17:54:48.413Z,1.93
2019-03-16T17:57:14.230Z,1.30
2019-03-16T17:59:40.227Z,1.23
2019-03-16T18:02:06.092Z,8.10
2019-03-16T18:04:31.956Z,3.83
2019-03-16T18:06:57.801Z,2.33
2019-03-16T18:09:23.666Z,1.83
2019-03-16T18:11:49.499Z,2.27
2019-03-16T18:14:15.349Z,2.40
2019-03-16T18:16:41.174Z,2.07
2019-03-16T18:19:07.006Z,2.57
2019-03-16T18:21:32.867Z,2.13
2019-03-16T18:23:58.696Z,6.30
2019-03-16T18:26:24.578Z,5.17
2019-03-16T18:28:50.404Z,5.27
2019-03-16T18:31:16.253Z,4.40
2019-03-16T18:33:42.161Z,5.33
2019-03-16T18:36:08.038Z,5.20
2019-03-16T18:38:33.871Z,6.53
2019-03-16T18:40:59.719Z,6.60
2019-03-16T18:43:25.604Z,6.50
2019-03-16T18:45:51.746Z,8.73
2019-03-16T18:48:17.636Z,8.93
2019-03-16T18:50:43.878Z,9.83
2019-03-16T18:53:09.805Z,9.53
2019-03-16T18:55:35.705Z,10.40
2019-03-16T18:58:01.550Z,8.70
2019-03-16T19:00:27.432Z,10.10
2019-03-16T19:02:53.277Z,11.00
2019-03-16T19:05:19.166Z,9.07
2019-03-16T19:07:45.147Z,10.50
2019-03-16T19:10:14.708Z,10.07
2019-03-16T19:12:40.559Z,9.57
2019-03-16T19:15:16.054Z,10.50
2019-03-16T19:17:41.914Z,10.90
2019-03-16T19:20:09.783Z,10.47
2019-03-16T19:22:35.815Z,11.33
2019-03-16T19:25:02.184Z,11.30
2019-03-16T19:27:28.096Z,12.67
2019-03-16T19:29:53.935Z,13.60
2019-03-16T19:32:32.760Z,13.50
2019-03-16T19:34:47.716Z,11.50
2019-03-16T19:37:13.579Z,11.40
2019-03-16T19:39:39.534Z,10.00
2019-03-16T19:42:05.402Z,10.40
2019-03-16T19:44:31.459Z,9.60
2019-03-16T19:46:57.436Z,10.83
2019-03-16T19:49:23.297Z,12.77
2019-03-16T19:51:49.142Z,12.57
2019-03-16T19:54:15.320Z,12.57
2019-03-16T19:56:41.195Z,12.63
2019-03-16T19:59:07.147Z,12.13
2019-03-16T20:01:32.996Z,12.23
2019-03-16T20:03:58.912Z,11.60
2019-03-16T20:06:26.168Z,10.20
2019-03-16T20:08:52.174Z,10.90
2019-03-16T20:11:18.108Z,13.03
2019-03-16T20:13:43.966Z,13.33
2019-03-16T20:16:09.975Z,11.90
2019-03-16T20:18:35.860Z,12.93
2019-03-16T20:21:01.776Z,13.63
2019-03-16T20:23:27.617Z,13.83
2019-03-16T20:25:53.492Z,14.33
2019-03-16T20:28:19.385Z,14.63
2019-03-16T20:30:45.491Z,14.73
2019-03-16T20:33:11.509Z,16.00
2019-03-16T20:35:37.422Z,14.70
2019-03-16T20:38:03.380Z,13.43
2019-03-16T20:40:29.552Z,17.40
2019-03-16T20:42:55.423Z,15.47
2019-03-16T20:45:21.349Z,14.23
2019-03-16T20:47:47.494Z,14.13
2019-03-16T20:50:16.991Z,15.03
2019-03-16T20:52:43.333Z,16.50
2019-03-16T20:55:09.466Z,14.87
2019-03-16T20:57:35.469Z,16.80
2019-03-16T21:00:01.947Z,16.67
2019-03-16T21:02:27.968Z,14.00
2019-03-16T21:04:53.920Z,14.73
2019-03-16T21:07:19.908Z,15.53
2019-03-16T21:09:45.809Z,15.60
2019-03-16T21:12:11.688Z,15.33
2019-03-16T21:14:37.624Z,15.60
2019-03-16T21:17:03.458Z,14.30
2019-03-16T21:19:29.327Z,15.20
2019-03-16T21:21:55.167Z,13.97
2019-03-16T21:24:21.038Z,13.50
2019-03-16T21:26:52.646Z,14.13
2019-03-16T21:29:15.649Z,15.23
2019-03-16T21:31:41.539Z,14.60
2019-03-16T21:34:07.419Z,15.17
2019-03-16T21:36:41.344Z,13.10
2019-03-16T21:39:01.034Z,14.50
2019-03-16T21:41:26.896Z,17.50
2019-03-16T21:43:52.776Z,16.17
2019-03-16T21:46:18.689Z,15.67
2019-03-16T21:48:44.920Z,16.27
2019-03-16T21:51:10.770Z,15.93
2019-03-16T21:53:36.641Z,18.83
2019-03-16T21:56:02.611Z,18.67
2019-03-16T21:58:28.461Z,16.43
2019-03-16T22:00:54.421Z,16.97
2019-03-16T22:03:20.233Z,18.93
2019-03-16T22:05:46.101Z,16.90
2019-03-16T22:08:12.077Z,17.13
2019-03-16T22:10:38.357Z,18.00
2019-03-16T22:13:04.306Z,16.90
2019-03-16T22:15:30.199Z,16.73
2019-03-16T22:17:56.157Z,17.53
2019-03-16T22:20:22.017Z,18.37
2019-03-16T22:22:47.980Z,24.67
2019-03-16T22:25:14.054Z,27.43
2019-03-16T22:27:39.935Z,32.10
2019-03-16T22:30:09.004Z,27.33
2019-03-16T22:32:34.956Z,28.83
2019-03-16T22:35:00.798Z,27.73
2019-03-16T22:37:26.664Z,24.50
2019-03-16T22:39:52.528Z,23.10
2019-03-16T22:42:18.445Z,22.73
2019-03-16T22:44:44.363Z,22.77
2019-03-16T22:47:10.241Z,19.73
2019-03-16T22:49:36.126Z,17.23
2019-03-16T22:52:02.000Z,12.37
2019-03-16T22:54:27.908Z,12.03
2019-03-16T22:56:53.741Z,11.93
2019-03-16T22:59:19.577Z,12.23
2019-03-16T23:01:45.640Z,16.00
2019-03-16T23:04:11.469Z,16.93
2019-03-16T23:06:40.326Z,13.23
2019-03-16T23:09:06.286Z,13.40
2019-03-16T23:11:32.157Z,13.47
2019-03-16T23:13:58.129Z,13.00
2019-03-16T23:16:24.048Z,12.80
2019-03-16T23:18:49.996Z,11.87
2019-03-16T23:21:15.860Z,14.30
2019-03-16T23:23:42.686Z,12.20
2019-03-16T23:26:08.670Z,11.10
2019-03-16T23:28:34.519Z,11.83
2019-03-16T23:31:00.370Z,12.17
2019-03-16T23:33:26.225Z,11.60
2019-03-16T23:35:52.076Z,11.30
2019-03-16T23:38:18.057Z,11.23
2019-03-16T23:40:44.024Z,13.70
2019-03-16T23:43:09.953Z,9.33
2019-03-16T23:45:35.909Z,12.03
2019-03-16T23:48:01.772Z,10.90
2019-03-16T23:50:27.708Z,11.17
2019-03-16T23:52:53.616Z,13.17
2019-03-16T23:55:19.507Z,11.43
2019-03-16T23:57:45.465Z,11.53
